Aviation Digital Data Service (ADDS)

Output produced by METARs form (1908 UTC 18 June 2019)
found at http://www.aviationweather.gov/metar/data/
 
Forecast for: PLCH (CHRISTMAS/CASSID, UM, US)
Text: TAF PLCH 181110Z 1812/1912 10008KT 9999 -SHRA SCT018 SCT100
Forecast period: 1200 UTC 18 June 2019 to 1200 UTC 19 June 2019
Forecast type: FROM: standard forecast or significant change
Winds: from the E (100 degrees) at 9 MPH (8 knots; 4.1 m/s)
Visibility: 6 or more miles 10+ km)
Ceiling: at least 12,000 feet AGL
Clouds: scattered clouds at 1800 feet AGL
scattered clouds at 10000 feet AGL
Weather: -SHRA  (light rain showers)
Text: PROB40
Forecast period: 1200 to 1500 UTC 18 June 2019
Forecast type: TEMPORARY: The following changes expected for less than half the time period
Visibility: 3 miles (5 km)
Ceiling: at least 12,000 feet AGL
Clouds: few clouds at 1800 feet AGL
Weather: TSRA  (rain associated with thunderstorm(s))